createdAt,value
2023-01-20T00:07:03.636Z,1.60
2023-01-20T00:17:10.357Z,1.90
2023-01-20T00:27:20.453Z,2.05
2023-01-20T00:37:27.778Z,1.70
2023-01-20T00:47:36.122Z,1.70
2023-01-20T00:57:43.005Z,1.60
2023-01-20T01:07:51.436Z,1.80
2023-01-20T01:17:58.598Z,1.75
2023-01-20T01:28:07.006Z,1.50
2023-01-20T01:38:13.858Z,1.45
2023-01-20T01:48:24.137Z,1.38
2023-01-20T01:58:33.309Z,1.10
2023-01-20T02:08:41.879Z,1.30
2023-01-20T02:19:03.279Z,1.10
2023-01-20T02:29:48.463Z,0.85
2023-01-20T02:40:06.595Z,0.90
2023-01-20T02:50:16.293Z,0.80
2023-01-20T03:00:28.611Z,1.10
2023-01-20T03:10:37.327Z,1.00
2023-01-20T03:20:45.706Z,0.98
2023-01-20T03:30:53.428Z,1.02
2023-01-20T03:41:09.859Z,0.98
2023-01-20T03:51:23.429Z,1.20
2023-01-20T04:01:36.645Z,2.55
2023-01-20T04:11:43.738Z,4.15
2023-01-20T04:21:55.887Z,4.30
2023-01-20T04:32:03.097Z,3.50
2023-01-20T04:42:13.264Z,2.58
2023-01-20T04:52:20.461Z,1.98
2023-01-20T05:02:28.831Z,1.70
2023-01-20T05:12:35.592Z,1.88
2023-01-20T05:22:46.156Z,1.70
2023-01-20T05:32:52.996Z,1.70
2023-01-20T05:43:04.946Z,1.80
2023-01-20T05:53:11.753Z,1.40
2023-01-20T06:03:20.111Z,1.20
2023-01-20T06:13:26.873Z,1.33
2023-01-20T06:23:35.281Z,1.20
2023-01-20T06:33:42.199Z,1.10
2023-01-20T06:43:51.189Z,1.00
2023-01-20T06:53:58.567Z,1.00
2023-01-20T07:04:06.950Z,0.90
2023-01-20T07:14:13.836Z,1.00
2023-01-20T07:24:22.332Z,1.10
2023-01-20T07:34:29.255Z,1.05
2023-01-20T07:44:38.187Z,0.88
2023-01-20T07:54:44.848Z,0.80
2023-01-20T08:04:53.260Z,0.88
2023-01-20T08:14:59.978Z,0.82
2023-01-20T08:25:10.792Z,0.80
2023-01-20T08:35:17.759Z,0.70
2023-01-20T08:45:26.634Z,0.70
2023-01-20T08:55:33.409Z,0.60
2023-01-20T09:05:41.770Z,0.80
2023-01-20T09:15:55.264Z,0.68
2023-01-20T09:26:05.099Z,0.60
2023-01-20T09:36:14.212Z,0.63
2023-01-20T09:46:34.768Z,0.70
2023-01-20T09:56:46.523Z,0.57
2023-01-20T10:06:57.943Z,0.60
2023-01-20T10:17:10.800Z,0.70
2023-01-20T10:27:19.140Z,0.55
2023-01-20T10:37:26.253Z,0.52
2023-01-20T10:47:46.597Z,0.60
2023-01-20T10:57:56.666Z,0.60
2023-01-20T11:08:06.652Z,0.60
2023-01-20T11:18:30.301Z,0.70
2023-01-20T11:28:52.558Z,0.50
2023-01-20T11:39:00.343Z,0.50
2023-01-20T11:49:23.042Z,0.60
2023-01-20T11:59:32.081Z,0.40
2023-01-20T12:09:43.797Z,0.65
2023-01-20T12:20:07.564Z,0.70
2023-01-20T12:30:41.852Z,0.52
2023-01-20T12:40:51.465Z,0.60
2023-01-20T12:51:12.223Z,0.65
2023-01-20T13:01:45.648Z,0.47
2023-01-20T13:12:04.908Z,0.50
2023-01-20T13:22:15.942Z,0.68
2023-01-20T13:32:36.107Z,0.60
2023-01-20T13:42:53.154Z,0.57
2023-01-20T13:53:24.068Z,0.50
2023-01-20T14:04:03.186Z,0.50
2023-01-20T14:14:26.072Z,0.77
2023-01-20T14:24:33.486Z,0.60
2023-01-20T14:34:43.043Z,0.60
2023-01-20T14:44:51.427Z,0.60
2023-01-20T14:55:00.643Z,0.63
2023-01-20T15:05:28.968Z,0.60
2023-01-20T15:15:40.313Z,0.63
2023-01-20T15:25:47.198Z,1.10
2023-01-20T15:36:00.699Z,1.10
2023-01-20T15:46:12.530Z,1.20
2023-01-20T15:56:24.273Z,1.20
2023-01-20T16:06:33.418Z,1.20
2023-01-20T16:16:41.955Z,1.40
2023-01-20T16:26:50.047Z,1.17
2023-01-20T16:36:58.461Z,1.33
2023-01-20T16:47:05.212Z,1.30
2023-01-20T16:57:17.113Z,1.20
2023-01-20T17:07:23.812Z,1.30
2023-01-20T17:17:32.140Z,1.38
2023-01-20T17:27:39.249Z,2.55
2023-01-20T17:37:47.830Z,1.90
2023-01-20T17:47:54.769Z,1.52
2023-01-20T17:58:06.581Z,1.42
2023-01-20T18:08:14.629Z,1.30
2023-01-20T18:18:23.000Z,1.33
2023-01-20T18:28:29.771Z,1.40
2023-01-20T18:38:39.283Z,1.35
2023-01-20T18:48:47.425Z,1.40
2023-01-20T18:58:59.155Z,1.48
2023-01-20T19:09:09.562Z,1.17
2023-01-20T19:19:18.644Z,1.20
2023-01-20T19:29:29.115Z,1.58
2023-01-20T19:39:37.916Z,1.70
2023-01-20T19:49:44.619Z,1.60
2023-01-20T19:59:53.745Z,1.80
2023-01-20T20:10:00.492Z,1.65
2023-01-20T20:20:09.624Z,1.70
2023-01-20T20:30:16.954Z,1.48
2023-01-20T20:40:26.263Z,0.95
2023-01-20T20:50:33.866Z,1.30
2023-01-20T21:00:43.181Z,1.40
2023-01-20T21:10:49.936Z,1.40
2023-01-20T21:21:05.169Z,1.20
2023-01-20T21:31:13.880Z,1.30
2023-01-20T21:41:22.511Z,1.20
2023-01-20T21:51:45.835Z,1.15
2023-01-20T22:01:54.691Z,1.30
2023-01-20T22:12:01.536Z,1.35
2023-01-20T22:22:10.453Z,2.03
2023-01-20T22:32:17.223Z,1.90
2023-01-20T22:42:25.681Z,1.80
2023-01-20T22:52:32.583Z,1.60
2023-01-20T23:02:41.699Z,1.50
2023-01-20T23:12:48.641Z,1.25
2023-01-20T23:22:57.071Z,1.40
2023-01-20T23:33:03.927Z,1.50
2023-01-20T23:43:12.406Z,1.40
2023-01-20T23:53:19.176Z,1.50
